Flight Track Log - Related Links

Times and Time Zones

All times are in EDT time to prevent confusion due to time zone crossing. See the EJA982 flight status page for this flight to view local times or setup timezone preferences in your user account.

Time Position Orientation Groundspeed Altitude Reporting Facility
EDT Latitude Longitude Course Direction KTS MPH feet Rate Location/Type
Tue 03:42:47 PM 40.0667 -75.0333 303° West 167 192 1,100  Level Philadelphia TRACON
Tue 03:43:29 PM 40.0833 -75.0667 303° West 232 267 2,600 2,353 Climbing Philadelphia TRACON
Tue 03:44:29 PM 40.1167 -75.0167 49° Northeast 257 296 5,100 2,095 Climbing Philadelphia TRACON
Tue 03:45:35 PM 40.0500 -74.9500 143° Southeast 289 333 7,000 2,000 Climbing Philadelphia TRACON
Tue 03:46:35 PM 39.9667 -74.9667 189° South 294 338 9,300 1,488 Climbing Philadelphia TRACON
Tue 03:47:36 PM 39.9167 -75.0333 226° Southwest 302 348 10,000 213 Climbing Philadelphia TRACON
Tue 03:49:24 PM 39.8192 -75.1756 228° Southwest 306 352 9,900 -36 Descending Washington Center
Tue 03:50:23 PM 39.7714 -75.2622 234° Southwest 306 352 9,900  Level Washington Center
Tue 03:51:24 PM 39.6986 -75.2867 194° South 288 331 9,900 403 Level Washington Center
Tue 03:52:22 PM 39.6172 -75.3061 190° South 283 326 10,700 1,008 Climbing Washington Center
Tue 03:53:23 PM 39.5278 -75.3225 188° South 306 352 11,900 1,279 Climbing Washington Center
Tue 03:54:24 PM 39.4403 -75.3389 188° South 319 367 13,300 1,361 Climbing Washington Center
Tue 03:55:22 PM 39.3403 -75.3581 188° South 339 390 14,600 1,780 Climbing Washington Center
Tue 03:56:22 PM 39.2361 -75.3744 187° South 366 421 16,800 1,934 Climbing Washington Center
Tue 03:57:23 PM 39.1278 -75.3936 188° South 387 445 18,500 1,537 Climbing Washington Center
Tue 03:58:23 PM 39.0175 -75.4125 188° South 392 451 19,900 1,450 Climbing Washington Center
Tue 03:59:23 PM 38.9028 -75.4317 187° South 409 471 21,400 1,488 Climbing Washington Center
Tue 04:00:24 PM 38.7861 -75.4478 186° South 416 479 22,900 1,289 Climbing Washington Center
Tue 04:01:24 PM 38.6692 -75.4642 186° South 426 490 24,000 1,373 Climbing Washington Center
Tue 04:02:22 PM 38.5464 -75.4828 187° South 431 496 25,600 1,462 Climbing Washington Center
Tue 04:03:23 PM 38.4358 -75.5333 200° South 431 496 26,900 1,328 Climbing Washington Center
Tue 04:04:24 PM 38.3253 -75.5997 205° Southwest 429 494 28,300 1,412 Climbing Washington Center
Tue 04:05:22 PM 38.2106 -75.6631 203° Southwest 441 507 29,700 1,220 Climbing Washington Center
Tue 04:06:22 PM 38.1000 -75.7317 206° Southwest 441 507 30,700 1,850 Climbing Washington Center
Tue 04:07:22 PM 37.9811 -75.8131 208° Southwest 446 513 33,400 2,281 Climbing Washington Center
Tue 04:08:23 PM 37.8831 -75.8628 202° Southwest 441 507 35,300 1,869 Climbing Washington Center
Tue 04:09:24 PM 37.7681 -75.9411 208° Southwest 426 490 37,200 1,613 Climbing Washington Center
Tue 04:10:22 PM 37.6572 -76.0036 204° Southwest 426 490 38,500 1,373 Climbing Washington Center
Tue 04:11:22 PM 37.5508 -76.0686 206° Southwest 431 496 39,900 744 Climbing Washington Center
Tue 04:12:23 PM 37.4358 -76.1358 205° Southwest 439 505 40,000 50 Climbing Washington Center
Tue 04:13:23 PM 37.3269 -76.1925 202° Southwest 455 524 40,000  Level Washington Center
Tue 04:14:22 PM 37.2056 -76.2647 205° Southwest 474 545 40,000  Level Washington Center
Tue 04:15:23 PM 37.0800 -76.3392 205° Southwest 487 560 40,000  Level Washington Center
Tue 04:16:24 PM 36.9544 -76.4106 204° Southwest 493 567 40,000  Level Washington Center
Tue 04:17:21 PM 36.8286 -76.4872 206° Southwest 493 567 40,000  Level Washington Center
Tue 04:18:23 PM 36.7092 -76.5661 208° Southwest 498 573 40,000  Level Washington Center
Tue 04:19:24 PM 36.5894 -76.6447 208° Southwest 493 567 40,000  Level Washington Center
Tue 04:20:24 PM 36.4658 -76.7156 205° Southwest 488 562 40,000  Level Washington Center
Tue 04:21:24 PM 36.3400 -76.7858 204° Southwest 493 567 40,000  Level Washington Center
Tue 04:22:24 PM 36.2142 -76.8561 204° Southwest 493 567 40,000  Level Washington Center
Tue 04:23:22 PM 36.0903 -76.9261 205° Southwest 498 573 40,000  Level Washington Center
Tue 04:24:23 PM 35.9622 -76.9931 203° Southwest 498 573 40,000  Level Washington Center
Tue 04:25:24 PM 35.8361 -77.0628 204° Southwest 498 573 40,000  Level Washington Center
Tue 04:26:22 PM 35.7142 -77.1347 206° Southwest 498 573 40,000  Level Washington Center
Tue 04:27:23 PM 35.5903 -77.2011 204° Southwest 493 567 40,000  Level Washington Center
Tue 04:28:23 PM 35.4683 -77.2703 205° Southwest 488 562 40,000  Level Washington Center
Tue 04:29:24 PM 35.3442 -77.3364 203° Southwest 488 562 40,000 50 Level Washington Center
Tue 04:30:24 PM 35.2181 -77.4072 205° Southwest 488 562 40,100 305 Climbing Washington Center
Tue 04:31:22 PM 35.0897 -77.4756 204° Southwest 488 562 40,600 555 Climbing Washington Center
Tue 04:32:23 PM 34.9697 -77.5411 204° Southwest 488 562 41,200 545 Climbing Washington Center
Tue 04:33:23 PM 34.8433 -77.6089 204° Southwest 488 562 41,700 496 Climbing Washington Center
Tue 04:34:24 PM 34.7044 -77.6814 203° Southwest 488 562 42,200 496 Climbing Washington Center
Tue 04:35:24 PM 34.5681 -77.7208 193° South 495 570 42,700 407 Climbing Washington Center
Tue 04:36:22 PM 34.4339 -77.7625 194° South 502 578 43,000 153 Climbing Washington Center
Tue 04:37:22 PM 34.2975 -77.8067 195° South 502 578 43,000  Level Washington Center
Tue 04:39:19 PM 34.0211 -77.8917 194° South 538 619 43,000  Level Jacksonville Center
Tue 04:40:19 PM 33.8831 -77.9372 195° South 533 613 43,000  Level Jacksonville Center
Tue 04:41:19 PM 33.7447 -77.9775 194° South 521 600 43,000  Level Jacksonville Center
Tue 04:42:19 PM 33.6028 -78.0253 196° South 521 600 43,000  Level Jacksonville Center
Tue 04:43:19 PM 33.4667 -78.0700 195° South 521 600 43,000  Level Jacksonville Center
Tue 04:44:19 PM 33.3286 -78.1122 194° South 521 600 43,000  Level Jacksonville Center
Tue 04:45:19 PM 33.1881 -78.1519 193° South 521 600 43,000  Level Jacksonville Center
Tue 04:46:19 PM 33.0519 -78.1964 195° South 521 600 43,000  Level Jacksonville Center
Tue 04:47:19 PM 32.9117 -78.2383 194° South 521 600 43,000  Level Jacksonville Center
Tue 04:48:19 PM 32.7756 -78.2850 196° South 521 600 43,000  Level Jacksonville Center
Tue 04:49:19 PM 32.6350 -78.3192 192° South 521 600 43,000  Level Jacksonville Center
Tue 04:50:19 PM 32.4947 -78.3683 196° South 521 600 43,000  Level Jacksonville Center
Tue 04:51:19 PM 32.3542 -78.4072 193° South 526 605 43,000  Level Jacksonville Center
Tue 04:52:19 PM 32.2306 -78.4500 196° South 519 597 43,000  Level Jacksonville Center
Tue 04:53:19 PM 32.0922 -78.4961 196° South 525 604 43,000  Level Jacksonville Center
Tue 04:54:19 PM 31.9375 -78.5450 195° South 525 604 43,000  Level Jacksonville Center
Tue 04:55:19 PM 31.7969 -78.5858 194° South 530 610 43,000  Level Jacksonville Center
Tue 04:56:19 PM 31.6544 -78.6292 195° South 530 610 43,000  Level Jacksonville Center
Tue 04:57:19 PM 31.5139 -78.6719 195° South 525 604 43,000  Level Jacksonville Center
Tue 04:58:19 PM 31.3733 -78.7125 194° South 534 615 43,000  Level Jacksonville Center
Tue 04:59:19 PM 31.2328 -78.7553 195° South 527 606 43,000  Level Jacksonville Center
Tue 05:00:19 PM 31.0922 -78.7978 195° South 527 606 43,000  Level Jacksonville Center
Tue 05:01:19 PM 30.9681 -78.8347 194° South 527 606 43,000  Level Jacksonville Center
Tue 05:02:19 PM 30.8231 -78.8747 193° South 527 606 43,000  Level Jacksonville Center
Tue 05:03:19 PM 30.6764 -78.9172 194° South 532 612 43,000  Level Jacksonville Center
Tue 05:04:19 PM 30.5397 -78.9589 195° South 532 612 43,000  Level Jacksonville Center
Tue 05:05:10 PM 30.4164 -78.9961 195° South 538 619 43,000  Level Miami Center
Tue 05:06:10 PM 30.2883 -79.0558 202° Southwest 533 613 43,000  Level Miami Center
Tue 05:07:10 PM 30.1478 -79.1131 199° South 526 605 43,000  Level Miami Center
Tue 05:08:10 PM 30.0008 -79.1747 200° South 526 605 43,000  Level Miami Center
Tue 05:09:10 PM 29.8811 -79.2367 204° Southwest 526 605 43,000  Level Miami Center
Tue 05:10:10 PM 29.7447 -79.2933 200° South 526 605 43,000  Level Miami Center
Tue 05:11:10 PM 29.6100 -79.3525 201° Southwest 526 605 43,000 -550 Level Miami Center
Tue 05:12:10 PM 29.4736 -79.4064 199° South 526 605 41,900 -1,300 Descending Miami Center
Tue 05:13:10 PM 29.3411 -79.4653 201° Southwest 521 600 40,400 -1,500 Descending Miami Center
Tue 05:14:10 PM 29.2022 -79.5261 201° Southwest 521 600 38,900 -1,500 Descending Miami Center
Tue 05:15:10 PM 29.0636 -79.5797 199° South 526 605 37,400 -1,550 Descending Miami Center
Tue 05:16:10 PM 28.9272 -79.6239 196° South 526 605 35,800 -1,550 Descending Miami Center
Tue 05:17:10 PM 28.8008 -79.6894 204° Southwest 514 592 34,300 -1,500 Descending Miami Center
Tue 05:18:10 PM 28.6925 -79.7836 217° Southwest 498 573 32,800 -1,500 Descending Miami Center
Tue 05:19:10 PM 28.5819 -79.8778 217° Southwest 498 573 31,300 -1,550 Descending Miami Center
Tue 05:20:10 PM 28.4536 -79.9333 201° Southwest 493 567 29,700 -1,850 Descending Miami Center
Tue 05:21:10 PM 28.2983 -79.9619 189° South 506 582 27,600 -2,650 Descending Miami Center
Tue 05:22:10 PM 28.1622 -79.9867 189° South 511 588 24,400 -3,000 Descending Miami Center
Tue 05:23:10 PM 28.0325 -80.0042 187° South 488 562 21,600 -2,100 Descending Miami Center
Tue 05:24:10 PM 27.9178 -79.9914 174° South 459 528 20,200 -1,450 Descending Miami Center
Tue 05:25:10 PM 27.7844 -79.9831 177° South 464 534 18,700 -1,850 Descending Miami Center
Tue 05:26:10 PM 27.6575 -79.9681 174° South 436 502 16,500 -1,900 Descending Miami Center
Tue 05:27:10 PM 27.5639 -79.9514 171° South 505 581 14,900 -2,350 Descending Miami Center
Tue 05:28:10 PM 27.4389 -79.9411 176° South 432 497 11,800 -3,050 Descending Miami Center
Tue 05:29:10 PM 27.3614 -79.9436 182° South 337 388 8,800 -3,000 Descending Miami Center
Tue 05:30:10 PM 27.2800 -79.9414 179° South 292 336 5,800 -2,350 Descending Miami Center
Tue 05:31:10 PM 27.2392 -80.0058 235° Southwest 233 268 4,100 -900 Descending Miami Center
Tue 05:32:10 PM 27.2456 -80.0925 275° West 256 295 4,000 -500 Descending Miami Center
Tue 05:33:10 PM 27.2353 -80.1739 262° West 267 307 3,100 -1,200 Descending Miami Center
Tue 05:34:10 PM 27.2256 -80.2367 260° West 248 285 1,600 -1,250 Descending Miami Center
Tue 05:35:10 PM 27.1936 -80.2567 209° Southwest 166 191 600 -650 Descending Miami Center
Tue 05:36:10 PM 27.1725 -80.2678 205° Southwest 124 143 300 -300 Descending Miami Center

Login

Don't have an account? Register now (free) for customized features, flight alerts, and more!